Terminal Aerodrome Forecast
Issued by NWS

Home | Current Version | Previous Version | Text Only | Print | Product List | Glossary On
Versions: 1 2 3 4 5 6 7 8 9 10 11 12
000
FTUS45 KGJT 252325
TAFASE
TAF
KASE 252325Z 2600/2624 23007KT P6SM SKC
     FM260100 20007KT P6SM SCT250
     FM260900 17004KT P6SM SCT100 BKN150
     FM261800 36009KT P6SM VCSH SCT070 BKN100 BKN150=

USA.gov is the U.S. government's official web portal to all federal, state and local government web resources and services.